sensor_id;sensor_type;location;lat;lon;timestamp;temperature;humidity
11855;DHT22;5987;53.140;8.904;2023-02-03T00:00:54;8.40;99.90
11855;DHT22;5987;53.140;8.904;2023-02-03T00:03:59;8.40;99.90
11855;DHT22;5987;53.140;8.904;2023-02-03T00:07:03;8.50;99.90
11855;DHT22;5987;53.140;8.904;2023-02-03T00:10:07;8.40;99.90
11855;DHT22;5987;53.140;8.904;2023-02-03T00:13:12;8.50;99.90
11855;DHT22;5987;53.140;8.904;2023-02-03T00:16:16;8.50;99.90
11855;DHT22;5987;53.140;8.904;2023-02-03T00:19:21;8.50;99.90
11855;DHT22;5987;53.140;8.904;2023-02-03T00:22:25;8.50;99.90
11855;DHT22;5987;53.140;8.904;2023-02-03T00:25:29;8.50;99.90
11855;DHT22;5987;53.140;8.904;2023-02-03T00:28:32;8.60;99.90
11855;DHT22;5987;53.140;8.904;2023-02-03T00:31:36;8.60;99.90
11855;DHT22;5987;53.140;8.904;2023-02-03T00:34:42;8.60;99.90
11855;DHT22;5987;53.140;8.904;2023-02-03T00:37:50;8.60;99.90
11855;DHT22;5987;53.140;8.904;2023-02-03T00:40:55;8.60;99.90
11855;DHT22;5987;53.140;8.904;2023-02-03T00:43:58;8.60;99.90
11855;DHT22;5987;53.140;8.904;2023-02-03T00:47:02;8.60;99.90
11855;DHT22;5987;53.140;8.904;2023-02-03T00:50:08;8.60;99.90
11855;DHT22;5987;53.140;8.904;2023-02-03T00:53:13;8.60;99.90
11855;DHT22;5987;53.140;8.904;2023-02-03T00:56:16;8.60;99.90
11855;DHT22;5987;53.140;8.904;2023-02-03T00:59:20;8.60;99.90
11855;DHT22;5987;53.140;8.904;2023-02-03T01:02:24;8.60;99.90
11855;DHT22;5987;53.140;8.904;2023-02-03T01:05:29;8.60;99.90
11855;DHT22;5987;53.140;8.904;2023-02-03T01:08:33;8.60;99.90
11855;DHT22;5987;53.140;8.904;2023-02-03T01:11:36;8.60;99.90
11855;DHT22;5987;53.140;8.904;2023-02-03T01:14:40;8.60;99.90
11855;DHT22;5987;53.140;8.904;2023-02-03T01:17:44;8.70;99.90
11855;DHT22;5987;53.140;8.904;2023-02-03T01:20:49;8.70;99.90
11855;DHT22;5987;53.140;8.904;2023-02-03T01:23:53;8.70;99.90
11855;DHT22;5987;53.140;8.904;2023-02-03T01:26:56;8.70;99.90
11855;DHT22;5987;53.140;8.904;2023-02-03T01:30:00;8.70;99.90
11855;DHT22;5987;53.140;8.904;2023-02-03T01:33:04;8.70;99.90
11855;DHT22;5987;53.140;8.904;2023-02-03T01:36:09;8.70;99.90
11855;DHT22;5987;53.140;8.904;2023-02-03T01:39:13;8.70;99.90
11855;DHT22;5987;53.140;8.904;2023-02-03T01:42:17;8.70;99.90
11855;DHT22;5987;53.140;8.904;2023-02-03T01:45:20;8.70;99.90
11855;DHT22;5987;53.140;8.904;2023-02-03T01:48:24;8.80;99.90
11855;DHT22;5987;53.140;8.904;2023-02-03T01:51:29;8.80;99.90
11855;DHT22;5987;53.140;8.904;2023-02-03T01:54:37;8.80;99.90
11855;DHT22;5987;53.140;8.904;2023-02-03T01:57:48;8.80;99.90
11855;DHT22;5987;53.140;8.904;2023-02-03T02:00:57;8.90;99.90
11855;DHT22;5987;53.140;8.904;2023-02-03T02:04:03;8.80;99.90
11855;DHT22;5987;53.140;8.904;2023-02-03T02:07:09;8.80;99.90
11855;DHT22;5987;53.140;8.904;2023-02-03T02:10:13;8.80;99.90
11855;DHT22;5987;53.140;8.904;2023-02-03T02:13:18;8.70;99.90
11855;DHT22;5987;53.140;8.904;2023-02-03T02:16:30;8.80;99.90
11855;DHT22;5987;53.140;8.904;2023-02-03T02:20:10;8.70;99.90
11855;DHT22;5987;53.140;8.904;2023-02-03T02:27:56;8.80;99.90
11855;DHT22;5987;53.140;8.904;2023-02-03T02:31:54;8.80;99.90
11855;DHT22;5987;53.140;8.904;2023-02-03T02:35:14;8.80;99.90
11855;DHT22;5987;53.140;8.904;2023-02-03T02:38:38;8.80;99.90
11855;DHT22;5987;53.140;8.904;2023-02-03T02:41:53;8.80;99.90
11855;DHT22;5987;53.140;8.904;2023-02-03T02:45:06;8.80;99.90
11855;DHT22;5987;53.140;8.904;2023-02-03T02:48:21;8.80;99.90
11855;DHT22;5987;53.140;8.904;2023-02-03T02:51:30;8.80;99.90
11855;DHT22;5987;53.140;8.904;2023-02-03T02:54:38;8.80;99.90
11855;DHT22;5987;53.140;8.904;2023-02-03T02:57:45;8.80;99.90
11855;DHT22;5987;53.140;8.904;2023-02-03T03:00:50;8.80;99.90
11855;DHT22;5987;53.140;8.904;2023-02-03T03:03:55;8.80;99.90
11855;DHT22;5987;53.140;8.904;2023-02-03T03:07:05;8.80;99.90
11855;DHT22;5987;53.140;8.904;2023-02-03T03:10:16;8.80;99.90
11855;DHT22;5987;53.140;8.904;2023-02-03T03:13:31;8.80;99.90
11855;DHT22;5987;53.140;8.904;2023-02-03T03:16:38;8.80;99.90
11855;DHT22;5987;53.140;8.904;2023-02-03T03:19:52;8.90;99.90
11855;DHT22;5987;53.140;8.904;2023-02-03T03:23:02;8.90;99.90
11855;DHT22;5987;53.140;8.904;2023-02-03T03:26:13;8.90;99.90
11855;DHT22;5987;53.140;8.904;2023-02-03T03:29:23;8.90;99.90
11855;DHT22;5987;53.140;8.904;2023-02-03T03:32:31;8.80;99.90
11855;DHT22;5987;53.140;8.904;2023-02-03T03:35:41;8.90;99.90
11855;DHT22;5987;53.140;8.904;2023-02-03T03:38:55;8.80;99.90
11855;DHT22;5987;53.140;8.904;2023-02-03T03:42:11;8.80;99.90
11855;DHT22;5987;53.140;8.904;2023-02-03T03:45:24;8.80;99.90
11855;DHT22;5987;53.140;8.904;2023-02-03T03:48:36;8.80;99.90
11855;DHT22;5987;53.140;8.904;2023-02-03T03:51:53;8.80;99.90
11855;DHT22;5987;53.140;8.904;2023-02-03T03:55:02;8.80;99.90
11855;DHT22;5987;53.140;8.904;2023-02-03T03:58:12;8.80;99.90
11855;DHT22;5987;53.140;8.904;2023-02-03T04:01:19;8.80;99.90
11855;DHT22;5987;53.140;8.904;2023-02-03T04:04:25;8.90;99.90
11855;DHT22;5987;53.140;8.904;2023-02-03T04:07:41;8.80;99.90
11855;DHT22;5987;53.140;8.904;2023-02-03T04:10:46;8.90;99.90
11855;DHT22;5987;53.140;8.904;2023-02-03T04:13:50;8.80;99.90
11855;DHT22;5987;53.140;8.904;2023-02-03T04:16:53;8.90;99.90
11855;DHT22;5987;53.140;8.904;2023-02-03T04:19:57;8.80;99.90
11855;DHT22;5987;53.140;8.904;2023-02-03T04:23:02;8.70;99.90
11855;DHT22;5987;53.140;8.904;2023-02-03T04:26:06;8.70;99.90
11855;DHT22;5987;53.140;8.904;2023-02-03T04:29:09;8.70;99.90
11855;DHT22;5987;53.140;8.904;2023-02-03T04:32:13;8.60;99.90
11855;DHT22;5987;53.140;8.904;2023-02-03T04:35:17;8.60;99.90
11855;DHT22;5987;53.140;8.904;2023-02-03T04:38:23;8.60;99.90
11855;DHT22;5987;53.140;8.904;2023-02-03T04:41:26;8.60;99.90
11855;DHT22;5987;53.140;8.904;2023-02-03T04:44:30;8.50;99.90
11855;DHT22;5987;53.140;8.904;2023-02-03T04:47:34;8.50;99.90
11855;DHT22;5987;53.140;8.904;2023-02-03T04:50:38;8.40;99.90
11855;DHT22;5987;53.140;8.904;2023-02-03T04:53:43;8.40;99.90
11855;DHT22;5987;53.140;8.904;2023-02-03T04:56:46;8.40;99.90
11855;DHT22;5987;53.140;8.904;2023-02-03T04:59:50;8.40;99.90
11855;DHT22;5987;53.140;8.904;2023-02-03T05:02:54;8.40;99.90
11855;DHT22;5987;53.140;8.904;2023-02-03T05:05:58;8.40;99.90
11855;DHT22;5987;53.140;8.904;2023-02-03T05:09:03;8.50;99.90
11855;DHT22;5987;53.140;8.904;2023-02-03T05:12:07;8.50;99.90
11855;DHT22;5987;53.140;8.904;2023-02-03T05:15:10;8.50;99.90
11855;DHT22;5987;53.140;8.904;2023-02-03T05:18:14;8.60;99.90
11855;DHT22;5987;53.140;8.904;2023-02-03T05:21:18;8.60;99.90
11855;DHT22;5987;53.140;8.904;2023-02-03T05:24:23;8.60;99.90
11855;DHT22;5987;53.140;8.904;2023-02-03T05:27:26;8.60;99.90
11855;DHT22;5987;53.140;8.904;2023-02-03T05:30:30;8.70;99.90
11855;DHT22;5987;53.140;8.904;2023-02-03T05:33:34;8.70;99.90
11855;DHT22;5987;53.140;8.904;2023-02-03T05:36:37;8.70;99.90
11855;DHT22;5987;53.140;8.904;2023-02-03T05:39:42;8.70;99.90
11855;DHT22;5987;53.140;8.904;2023-02-03T05:42:47;8.70;99.90
11855;DHT22;5987;53.140;8.904;2023-02-03T05:45:50;8.60;99.90
11855;DHT22;5987;53.140;8.904;2023-02-03T05:48:53;8.60;99.90
11855;DHT22;5987;53.140;8.904;2023-02-03T05:51:57;8.60;99.90
11855;DHT22;5987;53.140;8.904;2023-02-03T05:55:03;8.50;99.90
11855;DHT22;5987;53.140;8.904;2023-02-03T05:58:07;8.60;99.90
11855;DHT22;5987;53.140;8.904;2023-02-03T06:01:10;8.60;99.90
11855;DHT22;5987;53.140;8.904;2023-02-03T06:04:14;8.60;99.90
11855;DHT22;5987;53.140;8.904;2023-02-03T06:07:18;8.60;99.90
11855;DHT22;5987;53.140;8.904;2023-02-03T06:10:23;8.60;99.90
11855;DHT22;5987;53.140;8.904;2023-02-03T06:13:28;8.60;99.90
11855;DHT22;5987;53.140;8.904;2023-02-03T06:16:32;8.60;99.90
11855;DHT22;5987;53.140;8.904;2023-02-03T06:19:36;8.60;99.90
11855;DHT22;5987;53.140;8.904;2023-02-03T06:22:40;8.50;99.90
11855;DHT22;5987;53.140;8.904;2023-02-03T06:25:47;8.50;99.90
11855;DHT22;5987;53.140;8.904;2023-02-03T06:28:51;8.50;99.90
11855;DHT22;5987;53.140;8.904;2023-02-03T06:31:55;8.50;99.90
11855;DHT22;5987;53.140;8.904;2023-02-03T06:34:59;8.40;99.90
11855;DHT22;5987;53.140;8.904;2023-02-03T06:38:02;8.40;99.90
11855;DHT22;5987;53.140;8.904;2023-02-03T06:41:07;8.40;99.90
11855;DHT22;5987;53.140;8.904;2023-02-03T06:44:11;8.40;99.90
11855;DHT22;5987;53.140;8.904;2023-02-03T06:47:15;8.50;99.90
11855;DHT22;5987;53.140;8.904;2023-02-03T06:50:19;8.50;99.90
11855;DHT22;5987;53.140;8.904;2023-02-03T06:53:23;8.50;99.90
11855;DHT22;5987;53.140;8.904;2023-02-03T06:56:28;8.60;99.90
11855;DHT22;5987;53.140;8.904;2023-02-03T06:59:32;8.70;99.90
11855;DHT22;5987;53.140;8.904;2023-02-03T07:02:35;8.70;99.90
11855;DHT22;5987;53.140;8.904;2023-02-03T07:05:39;8.80;99.90
11855;DHT22;5987;53.140;8.904;2023-02-03T07:08:43;8.80;99.90
11855;DHT22;5987;53.140;8.904;2023-02-03T07:11:48;8.90;99.90
11855;DHT22;5987;53.140;8.904;2023-02-03T07:14:52;8.90;99.90
11855;DHT22;5987;53.140;8.904;2023-02-03T07:17:55;9.00;99.90
11855;DHT22;5987;53.140;8.904;2023-02-03T07:20:59;9.10;99.90
11855;DHT22;5987;53.140;8.904;2023-02-03T07:24:03;9.10;99.90
11855;DHT22;5987;53.140;8.904;2023-02-03T07:27:09;9.20;99.90
11855;DHT22;5987;53.140;8.904;2023-02-03T07:30:13;9.20;99.90
11855;DHT22;5987;53.140;8.904;2023-02-03T07:33:18;9.30;99.90
11855;DHT22;5987;53.140;8.904;2023-02-03T07:36:21;9.40;99.90
11855;DHT22;5987;53.140;8.904;2023-02-03T07:39:25;9.40;99.90
11855;DHT22;5987;53.140;8.904;2023-02-03T07:42:30;9.20;99.90
11855;DHT22;5987;53.140;8.904;2023-02-03T07:45:34;9.50;99.90
11855;DHT22;5987;53.140;8.904;2023-02-03T07:48:38;9.50;99.90
11855;DHT22;5987;53.140;8.904;2023-02-03T07:51:42;9.60;99.90
11855;DHT22;5987;53.140;8.904;2023-02-03T07:54:45;9.60;99.90
11855;DHT22;5987;53.140;8.904;2023-02-03T07:57:52;9.60;99.90
11855;DHT22;5987;53.140;8.904;2023-02-03T08:00:58;9.60;99.90
11855;DHT22;5987;53.140;8.904;2023-02-03T08:04:02;9.70;99.90
11855;DHT22;5987;53.140;8.904;2023-02-03T08:07:06;9.70;99.90
11855;DHT22;5987;53.140;8.904;2023-02-03T08:10:11;9.70;99.90
11855;DHT22;5987;53.140;8.904;2023-02-03T08:13:18;9.70;99.90
11855;DHT22;5987;53.140;8.904;2023-02-03T08:16:22;9.70;99.90
11855;DHT22;5987;53.140;8.904;2023-02-03T08:19:25;9.70;99.90
11855;DHT22;5987;53.140;8.904;2023-02-03T08:22:29;9.70;99.90
11855;DHT22;5987;53.140;8.904;2023-02-03T08:25:33;9.70;99.90
11855;DHT22;5987;53.140;8.904;2023-02-03T08:28:38;9.60;99.90
11855;DHT22;5987;53.140;8.904;2023-02-03T08:31:42;9.50;99.90
11855;DHT22;5987;53.140;8.904;2023-02-03T08:34:47;9.50;99.90
11855;DHT22;5987;53.140;8.904;2023-02-03T08:37:51;9.50;99.90
11855;DHT22;5987;53.140;8.904;2023-02-03T08:40:55;9.50;99.90
11855;DHT22;5987;53.140;8.904;2023-02-03T08:44:00;9.50;99.90
11855;DHT22;5987;53.140;8.904;2023-02-03T08:47:04;9.50;99.90
11855;DHT22;5987;53.140;8.904;2023-02-03T08:50:09;9.60;99.90
11855;DHT22;5987;53.140;8.904;2023-02-03T08:53:14;9.60;99.90
11855;DHT22;5987;53.140;8.904;2023-02-03T08:56:19;9.70;99.90
11855;DHT22;5987;53.140;8.904;2023-02-03T08:59:24;9.70;99.90
11855;DHT22;5987;53.140;8.904;2023-02-03T09:02:28;9.70;99.90
11855;DHT22;5987;53.140;8.904;2023-02-03T09:05:32;9.80;99.90
11855;DHT22;5987;53.140;8.904;2023-02-03T09:08:37;9.10;99.90
11855;DHT22;5987;53.140;8.904;2023-02-03T09:11:41;8.50;99.90
11855;DHT22;5987;53.140;8.904;2023-02-03T09:14:47;8.30;99.90
11855;DHT22;5987;53.140;8.904;2023-02-03T09:17:50;8.30;99.90
11855;DHT22;5987;53.140;8.904;2023-02-03T09:21:00;8.50;99.90
11855;DHT22;5987;53.140;8.904;2023-02-03T09:24:04;8.60;99.90
11855;DHT22;5987;53.140;8.904;2023-02-03T09:27:08;8.80;99.90
11855;DHT22;5987;53.140;8.904;2023-02-03T09:30:14;8.90;99.90
11855;DHT22;5987;53.140;8.904;2023-02-03T09:33:17;8.90;99.90
11855;DHT22;5987;53.140;8.904;2023-02-03T09:36:21;8.90;99.90
11855;DHT22;5987;53.140;8.904;2023-02-03T09:39:25;9.00;99.90
11855;DHT22;5987;53.140;8.904;2023-02-03T09:42:42;9.00;99.90
11855;DHT22;5987;53.140;8.904;2023-02-03T09:46:05;9.10;99.90
11855;DHT22;5987;53.140;8.904;2023-02-03T09:49:17;9.20;99.90
11855;DHT22;5987;53.140;8.904;2023-02-03T09:52:29;9.20;99.90
11855;DHT22;5987;53.140;8.904;2023-02-03T09:55:38;9.30;99.90
11855;DHT22;5987;53.140;8.904;2023-02-03T09:58:45;9.40;99.90
11855;DHT22;5987;53.140;8.904;2023-02-03T10:01:56;9.50;99.90
11855;DHT22;5987;53.140;8.904;2023-02-03T10:05:09;9.50;99.90
11855;DHT22;5987;53.140;8.904;2023-02-03T10:08:34;9.50;99.90
11855;DHT22;5987;53.140;8.904;2023-02-03T10:11:59;9.50;99.90
11855;DHT22;5987;53.140;8.904;2023-02-03T10:15:37;9.60;99.90
11855;DHT22;5987;53.140;8.904;2023-02-03T10:18:53;9.70;99.90
11855;DHT22;5987;53.140;8.904;2023-02-03T10:21:59;9.70;99.90
11855;DHT22;5987;53.140;8.904;2023-02-03T10:25:15;9.80;99.90
11855;DHT22;5987;53.140;8.904;2023-02-03T10:28:29;9.90;99.90
11855;DHT22;5987;53.140;8.904;2023-02-03T10:31:35;9.90;99.90
11855;DHT22;5987;53.140;8.904;2023-02-03T10:34:43;10.00;99.90
11855;DHT22;5987;53.140;8.904;2023-02-03T10:37:56;10.00;99.90
11855;DHT22;5987;53.140;8.904;2023-02-03T10:41:02;10.00;99.90
11855;DHT22;5987;53.140;8.904;2023-02-03T10:44:08;10.10;99.90
11855;DHT22;5987;53.140;8.904;2023-02-03T10:47:24;10.10;99.90
11855;DHT22;5987;53.140;8.904;2023-02-03T10:50:41;10.10;99.90
11855;DHT22;5987;53.140;8.904;2023-02-03T10:53:50;10.10;99.90
11855;DHT22;5987;53.140;8.904;2023-02-03T10:57:00;10.00;99.90
11855;DHT22;5987;53.140;8.904;2023-02-03T11:00:20;9.90;99.90
11855;DHT22;5987;53.140;8.904;2023-02-03T11:03:27;10.00;99.90
11855;DHT22;5987;53.140;8.904;2023-02-03T11:06:33;9.90;99.90
11855;DHT22;5987;53.140;8.904;2023-02-03T11:09:40;9.90;99.90
11855;DHT22;5987;53.140;8.904;2023-02-03T11:12:44;10.00;99.90
11855;DHT22;5987;53.140;8.904;2023-02-03T11:15:52;9.90;99.90
11855;DHT22;5987;53.140;8.904;2023-02-03T11:19:02;9.90;99.90
11855;DHT22;5987;53.140;8.904;2023-02-03T11:22:09;10.00;99.90
11855;DHT22;5987;53.140;8.904;2023-02-03T11:25:17;9.90;99.90
11855;DHT22;5987;53.140;8.904;2023-02-03T11:28:26;9.80;99.90
11855;DHT22;5987;53.140;8.904;2023-02-03T11:31:33;9.80;99.90
11855;DHT22;5987;53.140;8.904;2023-02-03T11:34:39;9.80;99.90
11855;DHT22;5987;53.140;8.904;2023-02-03T11:37:52;9.80;99.90
11855;DHT22;5987;53.140;8.904;2023-02-03T11:41:01;9.80;99.90
11855;DHT22;5987;53.140;8.904;2023-02-03T11:44:10;9.90;99.90
11855;DHT22;5987;53.140;8.904;2023-02-03T11:47:19;9.90;99.90
11855;DHT22;5987;53.140;8.904;2023-02-03T11:50:28;9.80;99.90
11855;DHT22;5987;53.140;8.904;2023-02-03T11:57:21;9.70;99.90
11855;DHT22;5987;53.140;8.904;2023-02-03T12:00:39;9.60;99.90
11855;DHT22;5987;53.140;8.904;2023-02-03T12:04:07;9.60;99.90
11855;DHT22;5987;53.140;8.904;2023-02-03T12:11:17;9.60;99.90
11855;DHT22;5987;53.140;8.904;2023-02-03T12:14:40;9.60;99.90
11855;DHT22;5987;53.140;8.904;2023-02-03T12:21:44;9.70;99.90
11855;DHT22;5987;53.140;8.904;2023-02-03T12:24:58;9.80;99.90
11855;DHT22;5987;53.140;8.904;2023-02-03T12:28:23;9.80;99.90
11855;DHT22;5987;53.140;8.904;2023-02-03T12:31:44;9.70;99.90
11855;DHT22;5987;53.140;8.904;2023-02-03T12:35:00;9.80;99.90
11855;DHT22;5987;53.140;8.904;2023-02-03T12:38:20;9.70;99.90
11855;DHT22;5987;53.140;8.904;2023-02-03T12:41:35;9.70;99.90
11855;DHT22;5987;53.140;8.904;2023-02-03T12:44:49;9.70;99.90
11855;DHT22;5987;53.140;8.904;2023-02-03T12:47:59;9.70;99.90
11855;DHT22;5987;53.140;8.904;2023-02-03T12:51:11;9.70;99.90
11855;DHT22;5987;53.140;8.904;2023-02-03T12:54:31;9.60;99.90
11855;DHT22;5987;53.140;8.904;2023-02-03T12:57:43;9.60;99.90
11855;DHT22;5987;53.140;8.904;2023-02-03T13:01:01;9.50;99.90
11855;DHT22;5987;53.140;8.904;2023-02-03T13:04:14;9.50;99.90
11855;DHT22;5987;53.140;8.904;2023-02-03T13:07:31;9.50;99.90
11855;DHT22;5987;53.140;8.904;2023-02-03T13:10:45;9.50;99.90
11855;DHT22;5987;53.140;8.904;2023-02-03T13:14:00;9.50;99.90
11855;DHT22;5987;53.140;8.904;2023-02-03T13:17:25;9.50;99.90
11855;DHT22;5987;53.140;8.904;2023-02-03T13:20:34;9.50;99.90
11855;DHT22;5987;53.140;8.904;2023-02-03T13:23:41;9.40;99.90
11855;DHT22;5987;53.140;8.904;2023-02-03T13:27:02;9.40;99.90
11855;DHT22;5987;53.140;8.904;2023-02-03T13:30:40;9.40;99.90
11855;DHT22;5987;53.140;8.904;2023-02-03T13:34:21;9.30;99.90
11855;DHT22;5987;53.140;8.904;2023-02-03T13:41:47;9.30;99.90
11855;DHT22;5987;53.140;8.904;2023-02-03T13:45:01;9.30;99.90
11855;DHT22;5987;53.140;8.904;2023-02-03T13:48:15;9.30;99.90
11855;DHT22;5987;53.140;8.904;2023-02-03T13:51:26;9.20;99.90
11855;DHT22;5987;53.140;8.904;2023-02-03T13:54:37;9.20;99.90
11855;DHT22;5987;53.140;8.904;2023-02-03T13:57:50;9.20;99.90
11855;DHT22;5987;53.140;8.904;2023-02-03T14:04:51;9.20;99.90
11855;DHT22;5987;53.140;8.904;2023-02-03T14:07:57;9.20;99.90
11855;DHT22;5987;53.140;8.904;2023-02-03T14:12:15;9.10;99.90
11855;DHT22;5987;53.140;8.904;2023-02-03T14:15:43;9.10;99.90
11855;DHT22;5987;53.140;8.904;2023-02-03T14:18:49;9.10;99.90
11855;DHT22;5987;53.140;8.904;2023-02-03T14:21:55;9.00;99.90
11855;DHT22;5987;53.140;8.904;2023-02-03T14:25:05;9.00;99.90
11855;DHT22;5987;53.140;8.904;2023-02-03T14:28:12;9.00;99.90
11855;DHT22;5987;53.140;8.904;2023-02-03T14:31:19;8.90;99.90
11855;DHT22;5987;53.140;8.904;2023-02-03T14:34:30;8.90;99.90
11855;DHT22;5987;53.140;8.904;2023-02-03T14:37:37;8.90;99.90
11855;DHT22;5987;53.140;8.904;2023-02-03T14:40:48;8.90;99.90
11855;DHT22;5987;53.140;8.904;2023-02-03T14:44:05;8.90;99.90
11855;DHT22;5987;53.140;8.904;2023-02-03T14:47:22;8.80;99.90
11855;DHT22;5987;53.140;8.904;2023-02-03T14:50:48;8.70;99.90
11855;DHT22;5987;53.140;8.904;2023-02-03T14:54:19;8.70;99.90
11855;DHT22;5987;53.140;8.904;2023-02-03T14:57:39;8.70;99.90
11855;DHT22;5987;53.140;8.904;2023-02-03T15:00:48;8.70;99.90
11855;DHT22;5987;53.140;8.904;2023-02-03T15:04:20;8.70;99.90
11855;DHT22;5987;53.140;8.904;2023-02-03T15:07:36;8.70;99.90
11855;DHT22;5987;53.140;8.904;2023-02-03T15:10:45;8.70;99.90
11855;DHT22;5987;53.140;8.904;2023-02-03T15:13:50;8.70;99.90
11855;DHT22;5987;53.140;8.904;2023-02-03T15:16:57;8.70;99.90
11855;DHT22;5987;53.140;8.904;2023-02-03T15:20:21;8.70;99.90
11855;DHT22;5987;53.140;8.904;2023-02-03T15:23:29;8.70;99.90
11855;DHT22;5987;53.140;8.904;2023-02-03T15:26:50;8.70;99.90
11855;DHT22;5987;53.140;8.904;2023-02-03T15:29:57;8.60;99.90
11855;DHT22;5987;53.140;8.904;2023-02-03T15:33:17;8.60;99.90
11855;DHT22;5987;53.140;8.904;2023-02-03T15:36:26;8.60;99.90
11855;DHT22;5987;53.140;8.904;2023-02-03T15:39:42;8.60;99.90
11855;DHT22;5987;53.140;8.904;2023-02-03T15:42:57;8.60;99.90
11855;DHT22;5987;53.140;8.904;2023-02-03T15:46:10;8.50;99.90
11855;DHT22;5987;53.140;8.904;2023-02-03T15:49:22;8.50;99.90
11855;DHT22;5987;53.140;8.904;2023-02-03T15:52:31;8.50;99.90
11855;DHT22;5987;53.140;8.904;2023-02-03T15:55:43;8.50;99.90
11855;DHT22;5987;53.140;8.904;2023-02-03T15:58:50;8.50;99.90
11855;DHT22;5987;53.140;8.904;2023-02-03T16:01:55;8.40;99.90
11855;DHT22;5987;53.140;8.904;2023-02-03T16:05:03;8.40;99.90
11855;DHT22;5987;53.140;8.904;2023-02-03T16:08:37;8.40;99.90
11855;DHT22;5987;53.140;8.904;2023-02-03T16:11:46;8.40;99.90
11855;DHT22;5987;53.140;8.904;2023-02-03T16:14:51;8.40;99.90
11855;DHT22;5987;53.140;8.904;2023-02-03T16:17:57;8.40;99.90
11855;DHT22;5987;53.140;8.904;2023-02-03T16:21:01;8.30;99.90
11855;DHT22;5987;53.140;8.904;2023-02-03T16:27:54;8.40;99.90
11855;DHT22;5987;53.140;8.904;2023-02-03T16:31:17;8.30;99.90
11855;DHT22;5987;53.140;8.904;2023-02-03T16:34:41;8.30;99.90
11855;DHT22;5987;53.140;8.904;2023-02-03T16:38:05;8.30;99.90
11855;DHT22;5987;53.140;8.904;2023-02-03T16:41:28;8.30;99.90
11855;DHT22;5987;53.140;8.904;2023-02-03T16:44:50;8.30;99.90
11855;DHT22;5987;53.140;8.904;2023-02-03T16:48:11;8.30;99.90
11855;DHT22;5987;53.140;8.904;2023-02-03T16:51:37;8.30;99.90
11855;DHT22;5987;53.140;8.904;2023-02-03T16:54:43;8.30;99.90
11855;DHT22;5987;53.140;8.904;2023-02-03T16:57:46;8.20;99.90
11855;DHT22;5987;53.140;8.904;2023-02-03T17:00:53;8.20;99.90
11855;DHT22;5987;53.140;8.904;2023-02-03T17:03:56;8.20;99.90
11855;DHT22;5987;53.140;8.904;2023-02-03T17:07:05;8.20;99.90
11855;DHT22;5987;53.140;8.904;2023-02-03T17:10:09;8.20;99.90
11855;DHT22;5987;53.140;8.904;2023-02-03T17:13:13;8.20;99.90
11855;DHT22;5987;53.140;8.904;2023-02-03T17:16:19;8.20;99.90
11855;DHT22;5987;53.140;8.904;2023-02-03T17:19:25;8.20;99.90
11855;DHT22;5987;53.140;8.904;2023-02-03T17:22:31;8.20;99.90
11855;DHT22;5987;53.140;8.904;2023-02-03T17:25:36;8.10;99.90
11855;DHT22;5987;53.140;8.904;2023-02-03T17:28:41;8.10;99.90
11855;DHT22;5987;53.140;8.904;2023-02-03T17:31:45;8.00;99.90
11855;DHT22;5987;53.140;8.904;2023-02-03T17:34:49;7.90;99.90
11855;DHT22;5987;53.140;8.904;2023-02-03T17:37:57;7.90;99.90
11855;DHT22;5987;53.140;8.904;2023-02-03T17:41:11;7.80;99.90
11855;DHT22;5987;53.140;8.904;2023-02-03T17:44:33;7.60;99.90
11855;DHT22;5987;53.140;8.904;2023-02-03T17:48:01;7.50;99.90
11855;DHT22;5987;53.140;8.904;2023-02-03T17:51:24;8.00;99.90
11855;DHT22;5987;53.140;8.904;2023-02-03T17:54:49;7.30;99.90
11855;DHT22;5987;53.140;8.904;2023-02-03T17:57:53;7.30;99.90
11855;DHT22;5987;53.140;8.904;2023-02-03T18:00:57;7.40;99.90
11855;DHT22;5987;53.140;8.904;2023-02-03T18:04:02;7.50;99.90
11855;DHT22;5987;53.140;8.904;2023-02-03T18:07:07;7.50;99.90
11855;DHT22;5987;53.140;8.904;2023-02-03T18:10:12;7.50;99.90
11855;DHT22;5987;53.140;8.904;2023-02-03T18:13:16;7.60;99.90
11855;DHT22;5987;53.140;8.904;2023-02-03T18:16:26;7.60;99.90
11855;DHT22;5987;53.140;8.904;2023-02-03T18:19:34;7.60;99.90
11855;DHT22;5987;53.140;8.904;2023-02-03T18:22:37;7.60;99.90
11855;DHT22;5987;53.140;8.904;2023-02-03T18:25:42;7.60;99.90
11855;DHT22;5987;53.140;8.904;2023-02-03T18:28:49;7.60;99.90
11855;DHT22;5987;53.140;8.904;2023-02-03T18:31:57;7.60;99.90
11855;DHT22;5987;53.140;8.904;2023-02-03T18:35:01;7.60;99.90
11855;DHT22;5987;53.140;8.904;2023-02-03T18:38:07;7.60;99.90
11855;DHT22;5987;53.140;8.904;2023-02-03T18:41:16;7.60;99.90
11855;DHT22;5987;53.140;8.904;2023-02-03T18:44:21;7.60;99.90
11855;DHT22;5987;53.140;8.904;2023-02-03T18:47:27;7.70;99.90
11855;DHT22;5987;53.140;8.904;2023-02-03T18:50:34;7.60;99.90
11855;DHT22;5987;53.140;8.904;2023-02-03T18:53:38;7.70;99.90
11855;DHT22;5987;53.140;8.904;2023-02-03T18:56:49;7.60;99.90
11855;DHT22;5987;53.140;8.904;2023-02-03T18:59:53;7.70;99.90
11855;DHT22;5987;53.140;8.904;2023-02-03T19:02:59;7.60;99.90
11855;DHT22;5987;53.140;8.904;2023-02-03T19:06:11;7.70;99.90
11855;DHT22;5987;53.140;8.904;2023-02-03T19:09:14;7.70;99.90
11855;DHT22;5987;53.140;8.904;2023-02-03T19:12:21;7.70;99.90
11855;DHT22;5987;53.140;8.904;2023-02-03T19:15:27;7.70;99.90
11855;DHT22;5987;53.140;8.904;2023-02-03T19:18:31;7.70;99.90
11855;DHT22;5987;53.140;8.904;2023-02-03T19:21:36;7.70;99.90
11855;DHT22;5987;53.140;8.904;2023-02-03T19:24:40;7.70;99.90
11855;DHT22;5987;53.140;8.904;2023-02-03T19:27:45;7.70;99.90
11855;DHT22;5987;53.140;8.904;2023-02-03T19:30:49;7.70;99.90
11855;DHT22;5987;53.140;8.904;2023-02-03T19:34:00;7.70;99.90
11855;DHT22;5987;53.140;8.904;2023-02-03T19:37:04;7.80;99.90
11855;DHT22;5987;53.140;8.904;2023-02-03T19:40:10;7.70;99.90
11855;DHT22;5987;53.140;8.904;2023-02-03T19:43:15;7.70;99.90
11855;DHT22;5987;53.140;8.904;2023-02-03T19:46:19;7.70;99.90
11855;DHT22;5987;53.140;8.904;2023-02-03T19:49:23;7.70;99.90
11855;DHT22;5987;53.140;8.904;2023-02-03T19:52:27;7.70;99.90
11855;DHT22;5987;53.140;8.904;2023-02-03T19:55:31;7.80;99.90
11855;DHT22;5987;53.140;8.904;2023-02-03T19:58:36;7.70;99.90
11855;DHT22;5987;53.140;8.904;2023-02-03T20:01:40;7.70;99.90
11855;DHT22;5987;53.140;8.904;2023-02-03T20:04:44;7.70;99.90
11855;DHT22;5987;53.140;8.904;2023-02-03T20:07:48;7.80;99.90
11855;DHT22;5987;53.140;8.904;2023-02-03T20:10:53;7.80;99.90
11855;DHT22;5987;53.140;8.904;2023-02-03T20:13:58;7.80;99.90
11855;DHT22;5987;53.140;8.904;2023-02-03T20:17:02;7.80;99.90
11855;DHT22;5987;53.140;8.904;2023-02-03T20:20:07;7.80;99.90
11855;DHT22;5987;53.140;8.904;2023-02-03T20:23:11;7.80;99.90
11855;DHT22;5987;53.140;8.904;2023-02-03T20:26:15;7.90;99.90
11855;DHT22;5987;53.140;8.904;2023-02-03T20:29:21;7.90;99.90
11855;DHT22;5987;53.140;8.904;2023-02-03T20:32:24;7.90;99.90
11855;DHT22;5987;53.140;8.904;2023-02-03T20:35:29;7.90;99.90
11855;DHT22;5987;53.140;8.904;2023-02-03T20:38:33;7.90;99.90
11855;DHT22;5987;53.140;8.904;2023-02-03T20:41:36;7.90;99.90
11855;DHT22;5987;53.140;8.904;2023-02-03T20:44:42;7.80;99.90
11855;DHT22;5987;53.140;8.904;2023-02-03T20:47:47;7.90;99.90
11855;DHT22;5987;53.140;8.904;2023-02-03T20:50:51;7.90;99.90
11855;DHT22;5987;53.140;8.904;2023-02-03T20:53:55;7.90;99.90
11855;DHT22;5987;53.140;8.904;2023-02-03T20:56:58;7.90;99.90
11855;DHT22;5987;53.140;8.904;2023-02-03T21:00:12;7.90;99.90